JNA270 RJFF-RKSI
Flight info
| Callsign | JNA270 |
|---|---|
| Flight time | 0h 55m |
| Altitude | 32000 |
| Route | DGC G339 BEETL Y208 INVOK Z91 PSN Y782 BITUX Z53 BASEM Y685 GUKDO GUKDO2E |
| Aircraft | B738/M-SDE2E3FGHIRWXY/LB1 |
Departure
| Time | 2026-05-04 12:18 |
|---|---|
| Airport | Fukuoka Airport (RJFF) |
Arrival
| Time | 2026-05-04 13:13 |
|---|---|
| Airport | Incheon International Airport (RKSI) |
| Time | Latitude | Longitude | Altitude | Speed | Heading |
|---|---|---|---|---|---|
| 2026-05-04 12:07 | 33.58628 | 130.44458 | 31 ft | 0 kts | 241° |
| 2026-05-04 12:10 | 33.58629 | 130.44461 | 31 ft | 3 kts | 240° |
| 2026-05-04 12:10 | 33.58642 | 130.44489 | 11 ft | 4 kts | 238° |
| 2026-05-04 12:11 | 33.58657 | 130.44516 | 29 ft | 4 kts | 236° |
| 2026-05-04 12:11 | 33.58672 | 130.44543 | 31 ft | 4 kts | 233° |
| 2026-05-04 12:11 | 33.58689 | 130.44568 | 29 ft | 4 kts | 226° |
| 2026-05-04 12:11 | 33.58709 | 130.44589 | 30 ft | 4 kts | 204° |
| 2026-05-04 12:12 | 33.58727 | 130.44592 | 31 ft | 1 kts | 151° |
| 2026-05-04 12:12 | 33.58731 | 130.44590 | 31 ft | 0 kts | 151° |
| 2026-05-04 12:14 | 33.58559 | 130.44703 | 31 ft | 24 kts | 151° |
| 2026-05-04 12:15 | 33.58418 | 130.44799 | 32 ft | 23 kts | 150° |
| 2026-05-04 12:15 | 33.58281 | 130.44893 | 34 ft | 22 kts | 150° |
| 2026-05-04 12:15 | 33.58147 | 130.44982 | 36 ft | 22 kts | 151° |
| 2026-05-04 12:15 | 33.58017 | 130.45067 | 37 ft | 21 kts | 151° |
| 2026-05-04 12:16 | 33.57890 | 130.45149 | 38 ft | 20 kts | 150° |
| 2026-05-04 12:16 | 33.57770 | 130.45236 | 36 ft | 21 kts | 149° |
| 2026-05-04 12:16 | 33.57610 | 130.45343 | 41 ft | 29 kts | 151° |
| 2026-05-04 12:16 | 33.57438 | 130.45460 | 38 ft | 28 kts | 150° |
| 2026-05-04 12:17 | 33.57409 | 130.45596 | 40 ft | 18 kts | 62° |
| 2026-05-04 12:17 | 33.57470 | 130.45729 | 41 ft | 18 kts | 61° |
| 2026-05-04 12:17 | 33.57570 | 130.45763 | 41 ft | 18 kts | 329° |
| 2026-05-04 12:17 | 33.57675 | 130.45688 | 41 ft | 20 kts | 330° |
| 2026-05-04 12:18 | 33.57909 | 130.45530 | 37 ft | 69 kts | 330° |
| 2026-05-04 12:18 | 33.58523 | 130.45115 | 34 ft | 129 kts | 330° |
| 2026-05-04 12:18 | 33.59413 | 130.44520 | 197 ft | 159 kts | 330° |
| 2026-05-04 12:18 | 33.60419 | 130.43865 | 683 ft | 169 kts | 329° |
| 2026-05-04 12:19 | 33.61445 | 130.43180 | 1333 ft | 167 kts | 327° |
| 2026-05-04 12:19 | 33.62365 | 130.42383 | 2059 ft | 162 kts | 319° |
| 2026-05-04 12:19 | 33.63401 | 130.41629 | 2361 ft | 187 kts | 328° |
| 2026-05-04 12:19 | 33.64619 | 130.40858 | 2560 ft | 207 kts | 329° |
| 2026-05-04 12:20 | 33.65943 | 130.40028 | 2784 ft | 222 kts | 329° |
| 2026-05-04 12:20 | 33.67339 | 130.39152 | 3127 ft | 233 kts | 330° |
| 2026-05-04 12:20 | 33.68727 | 130.38079 | 3423 ft | 245 kts | 321° |
| 2026-05-04 12:20 | 33.70092 | 130.36789 | 4014 ft | 251 kts | 320° |
| 2026-05-04 12:21 | 33.71449 | 130.35470 | 4772 ft | 251 kts | 321° |
| 2026-05-04 12:21 | 33.72819 | 130.34138 | 5455 ft | 254 kts | 321° |
| 2026-05-04 12:21 | 33.74200 | 130.32802 | 6208 ft | 255 kts | 322° |
| 2026-05-04 12:21 | 33.75594 | 130.31458 | 6917 ft | 258 kts | 322° |
| 2026-05-04 12:22 | 33.76991 | 130.30120 | 7602 ft | 260 kts | 322° |
| 2026-05-04 12:22 | 33.78417 | 130.28773 | 8352 ft | 261 kts | 321° |
| 2026-05-04 12:22 | 33.79857 | 130.27417 | 9110 ft | 264 kts | 321° |
| 2026-05-04 12:22 | 33.81315 | 130.26045 | 9875 ft | 266 kts | 320° |
| 2026-05-04 12:23 | 33.82772 | 130.24671 | 10421 ft | 277 kts | 320° |
| 2026-05-04 12:23 | 33.84352 | 130.23179 | 10582 ft | 300 kts | 320° |
| 2026-05-04 12:23 | 33.86060 | 130.21564 | 10727 ft | 322 kts | 320° |
| 2026-05-04 12:23 | 33.87870 | 130.19852 | 10970 ft | 339 kts | 320° |
| 2026-05-04 12:24 | 33.89752 | 130.18072 | 11460 ft | 346 kts | 320° |
| 2026-05-04 12:24 | 33.91640 | 130.16286 | 12108 ft | 349 kts | 320° |
| 2026-05-04 12:24 | 33.93559 | 130.14471 | 12809 ft | 351 kts | 321° |
| 2026-05-04 12:24 | 33.94838 | 130.13262 | 13260 ft | 353 kts | 321° |
| 2026-05-04 12:25 | 33.96806 | 130.11399 | 13937 ft | 357 kts | 321° |
| 2026-05-04 12:25 | 33.98739 | 130.09568 | 14522 ft | 360 kts | 320° |
| 2026-05-04 12:25 | 34.00720 | 130.07688 | 15170 ft | 363 kts | 320° |
| 2026-05-04 12:25 | 34.02713 | 130.05796 | 15823 ft | 366 kts | 319° |
| 2026-05-04 12:26 | 34.04723 | 130.03887 | 16452 ft | 369 kts | 319° |
| 2026-05-04 12:26 | 34.06754 | 130.01954 | 17073 ft | 373 kts | 319° |
| 2026-05-04 12:26 | 34.08803 | 130.00004 | 17688 ft | 376 kts | 319° |
| 2026-05-04 12:26 | 34.10840 | 129.98065 | 18298 ft | 379 kts | 318° |
| 2026-05-04 12:27 | 34.12921 | 129.96083 | 18824 ft | 382 kts | 318° |
| 2026-05-04 12:27 | 34.15022 | 129.94080 | 19330 ft | 386 kts | 318° |
| 2026-05-04 12:27 | 34.17152 | 129.92049 | 19837 ft | 389 kts | 318° |
| 2026-05-04 12:27 | 34.19289 | 129.90010 | 20338 ft | 393 kts | 317° |
| 2026-05-04 12:28 | 34.21446 | 129.87950 | 20828 ft | 396 kts | 317° |
| 2026-05-04 12:28 | 34.23599 | 129.85892 | 21292 ft | 400 kts | 317° |
| 2026-05-04 12:28 | 34.25793 | 129.83793 | 21790 ft | 403 kts | 317° |
| 2026-05-04 12:28 | 34.28005 | 129.81677 | 22270 ft | 405 kts | 317° |
| 2026-05-04 12:29 | 34.30223 | 129.79553 | 22735 ft | 409 kts | 317° |
| 2026-05-04 12:29 | 34.32439 | 129.77430 | 23169 ft | 412 kts | 317° |
| 2026-05-04 12:29 | 34.34699 | 129.75263 | 23612 ft | 415 kts | 317° |
| 2026-05-04 12:29 | 34.36969 | 129.73084 | 23981 ft | 418 kts | 316° |
| 2026-05-04 12:30 | 34.39254 | 129.70889 | 24363 ft | 420 kts | 316° |
| 2026-05-04 12:30 | 34.41547 | 129.68686 | 24750 ft | 421 kts | 315° |
| 2026-05-04 12:30 | 34.43852 | 129.66470 | 25120 ft | 423 kts | 315° |
| 2026-05-04 12:30 | 34.46163 | 129.64245 | 25486 ft | 425 kts | 314° |
| 2026-05-04 12:31 | 34.48483 | 129.62011 | 25836 ft | 427 kts | 314° |
| 2026-05-04 12:31 | 34.50812 | 129.59766 | 26183 ft | 429 kts | 314° |
| 2026-05-04 12:31 | 34.53158 | 129.57499 | 26531 ft | 431 kts | 313° |
| 2026-05-04 12:31 | 34.55501 | 129.55224 | 26863 ft | 432 kts | 313° |
| 2026-05-04 12:32 | 34.57850 | 129.52947 | 27306 ft | 431 kts | 313° |
| 2026-05-04 12:32 | 34.62566 | 129.48405 | 27928 ft | 435 kts | 312° |
| 2026-05-04 12:32 | 34.64942 | 129.46109 | 28239 ft | 436 kts | 312° |
| 2026-05-04 12:33 | 34.67288 | 129.43843 | 28697 ft | 434 kts | 311° |
| 2026-05-04 12:33 | 34.69638 | 129.41570 | 29267 ft | 430 kts | 310° |
| 2026-05-04 12:33 | 34.71971 | 129.39313 | 29815 ft | 426 kts | 310° |
| 2026-05-04 12:33 | 34.74282 | 129.37071 | 30260 ft | 425 kts | 309° |
| 2026-05-04 12:34 | 34.76591 | 129.34826 | 30611 ft | 424 kts | 310° |
| 2026-05-04 12:34 | 34.78907 | 129.32577 | 30859 ft | 426 kts | 310° |
| 2026-05-04 12:34 | 34.81223 | 129.30317 | 31110 ft | 427 kts | 310° |
| 2026-05-04 12:34 | 34.83539 | 129.28057 | 31425 ft | 427 kts | 310° |
| 2026-05-04 12:35 | 34.85861 | 129.25793 | 31771 ft | 426 kts | 310° |
| 2026-05-04 12:35 | 34.88178 | 129.23534 | 32098 ft | 426 kts | 310° |
| 2026-05-04 12:35 | 34.90481 | 129.21280 | 32083 ft | 431 kts | 310° |
| 2026-05-04 12:36 | 34.95152 | 129.16723 | 32087 ft | 427 kts | 310° |
| 2026-05-04 12:36 | 34.99788 | 129.12197 | 32121 ft | 425 kts | 311° |
| 2026-05-04 12:37 | 35.04376 | 129.07696 | 32108 ft | 425 kts | 312° |
| 2026-05-04 12:37 | 35.09002 | 129.03148 | 32107 ft | 426 kts | 312° |
| 2026-05-04 12:38 | 35.13805 | 128.98870 | 32093 ft | 439 kts | 322° |
| 2026-05-04 12:38 | 35.19363 | 128.95600 | 32109 ft | 445 kts | 326° |
| 2026-05-04 12:39 | 35.25008 | 128.92377 | 32078 ft | 447 kts | 326° |
| 2026-05-04 12:39 | 35.30631 | 128.89087 | 32096 ft | 448 kts | 326° |
| 2026-05-04 12:40 | 35.36228 | 128.85768 | 32096 ft | 449 kts | 326° |
| 2026-05-04 12:40 | 35.41854 | 128.82423 | 32087 ft | 448 kts | 326° |
| 2026-05-04 12:41 | 35.47466 | 128.79087 | 32112 ft | 447 kts | 327° |
| 2026-05-04 12:41 | 35.53024 | 128.75783 | 32107 ft | 444 kts | 327° |
| 2026-05-04 12:42 | 35.58570 | 128.72486 | 32097 ft | 441 kts | 327° |
| 2026-05-04 12:42 | 35.64075 | 128.69205 | 32109 ft | 439 kts | 327° |
| 2026-05-04 12:43 | 35.69561 | 128.65937 | 32134 ft | 439 kts | 328° |
| 2026-05-04 12:43 | 35.75078 | 128.62652 | 32107 ft | 439 kts | 327° |
| 2026-05-04 12:44 | 35.80494 | 128.59214 | 32094 ft | 434 kts | 320° |
| 2026-05-04 12:44 | 35.85028 | 128.54481 | 32111 ft | 424 kts | 310° |
| 2026-05-04 12:45 | 35.89249 | 128.49367 | 32075 ft | 425 kts | 310° |
| 2026-05-04 12:45 | 35.93473 | 128.44286 | 32093 ft | 426 kts | 310° |
| 2026-05-04 12:46 | 35.98349 | 128.40036 | 31739 ft | 430 kts | 329° |
| 2026-05-04 12:46 | 36.01089 | 128.38605 | 31523 ft | 422 kts | 331° |
| 2026-05-04 12:46 | 36.03784 | 128.37255 | 31253 ft | 414 kts | 331° |
| 2026-05-04 12:46 | 36.06393 | 128.35948 | 31010 ft | 405 kts | 331° |
| 2026-05-04 12:47 | 36.08975 | 128.34641 | 30762 ft | 397 kts | 331° |
| 2026-05-04 12:47 | 36.11507 | 128.33350 | 30515 ft | 389 kts | 331° |
| 2026-05-04 12:47 | 36.13990 | 128.32081 | 30257 ft | 382 kts | 331° |
| 2026-05-04 12:47 | 36.16425 | 128.30830 | 29993 ft | 378 kts | 331° |
| 2026-05-04 12:48 | 36.18868 | 128.29564 | 29718 ft | 382 kts | 331° |
| 2026-05-04 12:48 | 36.21347 | 128.28274 | 29452 ft | 387 kts | 331° |
| 2026-05-04 12:48 | 36.23812 | 128.26993 | 29195 ft | 388 kts | 331° |
| 2026-05-04 12:48 | 36.26290 | 128.25709 | 28902 ft | 381 kts | 332° |
| 2026-05-04 12:49 | 36.28726 | 128.24447 | 28629 ft | 380 kts | 332° |
| 2026-05-04 12:49 | 36.31186 | 128.23170 | 28364 ft | 385 kts | 332° |
| 2026-05-04 12:49 | 36.33677 | 128.21871 | 28123 ft | 389 kts | 332° |
| 2026-05-04 12:49 | 36.36185 | 128.20565 | 27830 ft | 391 kts | 332° |
| 2026-05-04 12:50 | 36.38692 | 128.19263 | 27577 ft | 390 kts | 332° |
| 2026-05-04 12:50 | 36.41177 | 128.17966 | 27326 ft | 391 kts | 333° |
| 2026-05-04 12:50 | 36.43692 | 128.16653 | 27066 ft | 392 kts | 333° |
| 2026-05-04 12:50 | 36.46207 | 128.15341 | 26809 ft | 392 kts | 333° |
| 2026-05-04 12:51 | 36.48733 | 128.14022 | 26556 ft | 392 kts | 333° |
| 2026-05-04 12:51 | 36.51230 | 128.12718 | 26303 ft | 393 kts | 334° |
| 2026-05-04 12:51 | 36.53761 | 128.11395 | 26054 ft | 392 kts | 334° |
| 2026-05-04 12:51 | 36.56248 | 128.10098 | 25801 ft | 392 kts | 334° |
| 2026-05-04 12:52 | 36.58803 | 128.08761 | 25567 ft | 392 kts | 334° |
| 2026-05-04 12:52 | 36.61318 | 128.07441 | 25323 ft | 393 kts | 334° |
| 2026-05-04 12:52 | 36.63851 | 128.06111 | 25084 ft | 394 kts | 335° |
| 2026-05-04 12:52 | 36.66379 | 128.04782 | 24849 ft | 395 kts | 335° |
| 2026-05-04 12:53 | 36.68880 | 128.03467 | 24600 ft | 396 kts | 335° |
| 2026-05-04 12:53 | 36.71422 | 128.02133 | 24381 ft | 397 kts | 335° |
| 2026-05-04 12:53 | 36.73966 | 128.00795 | 24157 ft | 397 kts | 335° |
| 2026-05-04 12:53 | 36.76524 | 127.99448 | 23924 ft | 398 kts | 336° |
| 2026-05-04 12:54 | 36.79088 | 127.98100 | 23695 ft | 400 kts | 336° |
| 2026-05-04 12:54 | 36.81635 | 127.96689 | 23418 ft | 399 kts | 331° |
| 2026-05-04 12:54 | 36.83928 | 127.94793 | 23145 ft | 399 kts | 321° |
| 2026-05-04 12:54 | 36.85965 | 127.92437 | 22891 ft | 399 kts | 312° |
| 2026-05-04 12:55 | 36.87658 | 127.89686 | 22613 ft | 399 kts | 305° |
| 2026-05-04 12:55 | 36.89227 | 127.86793 | 22099 ft | 404 kts | 304° |
| 2026-05-04 12:55 | 36.90801 | 127.83908 | 21545 ft | 398 kts | 305° |
| 2026-05-04 12:55 | 36.92336 | 127.81141 | 20972 ft | 385 kts | 306° |
| 2026-05-04 12:56 | 36.93844 | 127.78445 | 20404 ft | 372 kts | 306° |
| 2026-05-04 12:56 | 36.95317 | 127.75837 | 19859 ft | 361 kts | 307° |
| 2026-05-04 12:56 | 36.96752 | 127.73304 | 19330 ft | 351 kts | 307° |
| 2026-05-04 12:56 | 36.98150 | 127.70833 | 18796 ft | 343 kts | 307° |
| 2026-05-04 12:57 | 36.99512 | 127.68422 | 18269 ft | 336 kts | 307° |
| 2026-05-04 12:57 | 37.00854 | 127.66041 | 17578 ft | 333 kts | 307° |
| 2026-05-04 12:57 | 37.02184 | 127.63677 | 16902 ft | 330 kts | 307° |
| 2026-05-04 12:57 | 37.03491 | 127.61335 | 16258 ft | 326 kts | 306° |
| 2026-05-04 12:58 | 37.04782 | 127.59015 | 15637 ft | 323 kts | 306° |
| 2026-05-04 12:58 | 37.05935 | 127.56658 | 15038 ft | 322 kts | 296° |
| 2026-05-04 12:58 | 37.06754 | 127.54083 | 14591 ft | 315 kts | 292° |
| 2026-05-04 12:58 | 37.07489 | 127.51522 | 14129 ft | 309 kts | 291° |
| 2026-05-04 12:59 | 37.08208 | 127.48977 | 13678 ft | 311 kts | 291° |
| 2026-05-04 12:59 | 37.08930 | 127.46413 | 13177 ft | 312 kts | 291° |
| 2026-05-04 12:59 | 37.09658 | 127.43841 | 12690 ft | 314 kts | 291° |
| 2026-05-04 12:59 | 37.10384 | 127.41273 | 12208 ft | 309 kts | 291° |
| 2026-05-04 13:00 | 37.11079 | 127.38783 | 12023 ft | 295 kts | 289° |
| 2026-05-04 13:00 | 37.11612 | 127.36298 | 12002 ft | 308 kts | 285° |
| 2026-05-04 13:00 | 37.12103 | 127.33581 | 12016 ft | 333 kts | 284° |
| 2026-05-04 13:00 | 37.12617 | 127.30635 | 12013 ft | 356 kts | 284° |
| 2026-05-04 13:01 | 37.13147 | 127.27602 | 11984 ft | 348 kts | 284° |
| 2026-05-04 13:01 | 37.13657 | 127.24703 | 11983 ft | 332 kts | 284° |
| 2026-05-04 13:01 | 37.14152 | 127.21934 | 11978 ft | 317 kts | 284° |
| 2026-05-04 13:01 | 37.14631 | 127.19285 | 11995 ft | 315 kts | 284° |
| 2026-05-04 13:02 | 37.15117 | 127.16610 | 12001 ft | 314 kts | 284° |
| 2026-05-04 13:02 | 37.15603 | 127.13943 | 12006 ft | 313 kts | 284° |
| 2026-05-04 13:02 | 37.16091 | 127.11269 | 12005 ft | 312 kts | 284° |
| 2026-05-04 13:02 | 37.16565 | 127.08666 | 11855 ft | 300 kts | 284° |
| 2026-05-04 13:03 | 37.17018 | 127.06174 | 11623 ft | 288 kts | 284° |
| 2026-05-04 13:03 | 37.17455 | 127.03766 | 11116 ft | 285 kts | 284° |
| 2026-05-04 13:03 | 37.17895 | 127.01347 | 10638 ft | 282 kts | 284° |
| 2026-05-04 13:03 | 37.18322 | 126.99000 | 10412 ft | 272 kts | 284° |
| 2026-05-04 13:04 | 37.18745 | 126.96671 | 10102 ft | 272 kts | 284° |
| 2026-05-04 13:04 | 37.19163 | 126.94365 | 9841 ft | 270 kts | 284° |
| 2026-05-04 13:04 | 37.19577 | 126.92080 | 9553 ft | 268 kts | 284° |
| 2026-05-04 13:04 | 37.19990 | 126.89801 | 9278 ft | 266 kts | 284° |
| 2026-05-04 13:05 | 37.20396 | 126.87556 | 8858 ft | 270 kts | 284° |
| 2026-05-04 13:05 | 37.20814 | 126.85243 | 8434 ft | 273 kts | 284° |
| 2026-05-04 13:05 | 37.21233 | 126.82915 | 8140 ft | 272 kts | 284° |
| 2026-05-04 13:05 | 37.21647 | 126.80609 | 7853 ft | 269 kts | 284° |
| 2026-05-04 13:06 | 37.21920 | 126.79091 | 7664 ft | 268 kts | 284° |
| 2026-05-04 13:06 | 37.22329 | 126.76815 | 7382 ft | 266 kts | 283° |
| 2026-05-04 13:06 | 37.22862 | 126.73837 | 6926 ft | 258 kts | 283° |
| 2026-05-04 13:06 | 37.23124 | 126.72382 | 6614 ft | 258 kts | 283° |
| 2026-05-04 13:07 | 37.23516 | 126.70195 | 6155 ft | 256 kts | 283° |
| 2026-05-04 13:07 | 37.23903 | 126.68022 | 5677 ft | 254 kts | 283° |
| 2026-05-04 13:07 | 37.24393 | 126.65909 | 5200 ft | 252 kts | 299° |
| 2026-05-04 13:07 | 37.26050 | 126.63950 | 4651 ft | 245 kts | 324° |
| 2026-05-04 13:08 | 37.26974 | 126.63121 | 4430 ft | 236 kts | 324° |
| 2026-05-04 13:08 | 37.28263 | 126.61987 | 4164 ft | 223 kts | 324° |
| 2026-05-04 13:08 | 37.29501 | 126.60895 | 3896 ft | 212 kts | 323° |
| 2026-05-04 13:08 | 37.30684 | 126.59840 | 3629 ft | 205 kts | 323° |
| 2026-05-04 13:09 | 37.31817 | 126.58827 | 3348 ft | 194 kts | 323° |
| 2026-05-04 13:09 | 37.32884 | 126.57873 | 3085 ft | 181 kts | 323° |
| 2026-05-04 13:09 | 37.33877 | 126.56984 | 2863 ft | 171 kts | 323° |
| 2026-05-04 13:09 | 37.34836 | 126.56126 | 2643 ft | 166 kts | 322° |
| 2026-05-04 13:10 | 37.35747 | 126.55311 | 2419 ft | 154 kts | 322° |
| 2026-05-04 13:10 | 37.36581 | 126.54566 | 2218 ft | 142 kts | 322° |
| 2026-05-04 13:10 | 37.37383 | 126.53848 | 2036 ft | 142 kts | 322° |
| 2026-05-04 13:10 | 37.38185 | 126.53130 | 1852 ft | 141 kts | 322° |
| 2026-05-04 13:11 | 37.38970 | 126.52428 | 1662 ft | 139 kts | 322° |
| 2026-05-04 13:11 | 37.39738 | 126.51742 | 1476 ft | 136 kts | 321° |
| 2026-05-04 13:11 | 37.40519 | 126.51062 | 1338 ft | 137 kts | 323° |
| 2026-05-04 13:11 | 37.41315 | 126.50386 | 1184 ft | 140 kts | 322° |
| 2026-05-04 13:12 | 37.42119 | 126.49674 | 958 ft | 141 kts | 321° |
| 2026-05-04 13:12 | 37.42917 | 126.48945 | 690 ft | 140 kts | 320° |
| 2026-05-04 13:12 | 37.43697 | 126.48219 | 501 ft | 141 kts | 322° |
| 2026-05-04 13:12 | 37.44484 | 126.47507 | 355 ft | 140 kts | 321° |
| 2026-05-04 13:13 | 37.45276 | 126.46790 | 160 ft | 142 kts | 321° |
| 2026-05-04 13:13 | 37.46073 | 126.46087 | 32 ft | 133 kts | 321° |
| 2026-05-04 13:13 | 37.46722 | 126.45497 | 29 ft | 94 kts | 325° |
| 2026-05-04 13:13 | 37.47114 | 126.45143 | 30 ft | 44 kts | 321° |
| 2026-05-04 13:14 | 37.47255 | 126.44874 | 30 ft | 26 kts | 292° |
| 2026-05-04 13:14 | 37.47329 | 126.44704 | 30 ft | 21 kts | 311° |
| 2026-05-04 13:14 | 37.47373 | 126.44651 | 30 ft | 0 kts | 300° |
| 2026-05-04 13:14 | 37.47375 | 126.44644 | 32 ft | 5 kts | 290° |
| 2026-05-04 13:15 | 37.47341 | 126.44542 | 32 ft | 17 kts | 234° |
| 2026-05-04 13:15 | 37.47265 | 126.44408 | 32 ft | 20 kts | 233° |
| 2026-05-04 13:15 | 37.47202 | 126.44299 | 32 ft | 6 kts | 234° |
| 2026-05-04 13:15 | 37.47200 | 126.44297 | 32 ft | 0 kts | 234° |
| 2026-05-04 13:16 | 37.47199 | 126.44295 | 32 ft | 4 kts | 234° |
| 2026-05-04 13:16 | 37.47143 | 126.44291 | 31 ft | 15 kts | 147° |
| 2026-05-04 13:16 | 37.47046 | 126.44375 | 31 ft | 17 kts | 143° |
| 2026-05-04 13:16 | 37.46946 | 126.44466 | 30 ft | 19 kts | 144° |
| 2026-05-04 13:17 | 37.46835 | 126.44564 | 32 ft | 20 kts | 144° |
| 2026-05-04 13:17 | 37.46726 | 126.44661 | 31 ft | 19 kts | 145° |
| 2026-05-04 13:17 | 37.46619 | 126.44756 | 32 ft | 18 kts | 144° |
| 2026-05-04 13:17 | 37.46516 | 126.44848 | 32 ft | 18 kts | 145° |
| 2026-05-04 13:18 | 37.46419 | 126.44935 | 32 ft | 15 kts | 144° |
| 2026-05-04 13:18 | 37.46329 | 126.45014 | 32 ft | 16 kts | 145° |
| 2026-05-04 13:18 | 37.46227 | 126.45087 | 32 ft | 17 kts | 178° |
| 2026-05-04 13:18 | 37.46142 | 126.44986 | 32 ft | 18 kts | 232° |
| 2026-05-04 13:19 | 37.46102 | 126.44920 | 32 ft | 6 kts | 233° |
| 2026-05-04 13:19 | 37.46084 | 126.44896 | 31 ft | 0 kts | 217° |
| 2026-05-04 13:19 | 37.46083 | 126.44893 | 31 ft | 1 kts | 231° |
| 2026-05-04 13:19 | 37.46075 | 126.44841 | 32 ft | 13 kts | 252° |
| 2026-05-04 13:20 | 37.46020 | 126.44734 | 32 ft | 16 kts | 234° |
| 2026-05-04 13:20 | 37.45957 | 126.44626 | 32 ft | 15 kts | 235° |
| 2026-05-04 13:20 | 37.45890 | 126.44507 | 30 ft | 19 kts | 235° |
| 2026-05-04 13:20 | 37.45799 | 126.44361 | 30 ft | 21 kts | 207° |
| 2026-05-04 13:21 | 37.45758 | 126.44451 | 32 ft | 16 kts | 56° |
| 2026-05-04 13:21 | 37.45821 | 126.44563 | 32 ft | 15 kts | 54° |
| 2026-05-04 13:21 | 37.45828 | 126.44643 | 30 ft | 5 kts | 145° |
| 2026-05-04 13:21 | 37.45797 | 126.44669 | 32 ft | 5 kts | 144° |
| 2026-05-04 13:22 | 37.45782 | 126.44682 | 32 ft | 0 kts | 145° |